createdAt,value
2018-09-28T00:01:38.914Z,10.65
2018-09-28T00:06:33.389Z,10.76
2018-09-28T00:11:27.876Z,10.67
2018-09-28T00:16:22.362Z,10.60
2018-09-28T00:21:16.837Z,10.47
2018-09-28T00:26:11.286Z,10.41
2018-09-28T00:31:05.828Z,10.32
2018-09-28T00:36:00.442Z,10.36
2018-09-28T00:40:54.832Z,10.29
2018-09-28T00:45:49.311Z,10.26
2018-09-28T00:50:43.775Z,10.22
2018-09-28T00:55:38.221Z,10.18
2018-09-28T01:00:32.721Z,10.09
2018-09-28T01:05:27.288Z,10.07
2018-09-28T01:10:21.756Z,10.02
2018-09-28T01:15:16.215Z,9.99
2018-09-28T01:20:10.663Z,9.94
2018-09-28T01:25:05.253Z,9.95
2018-09-28T01:29:59.835Z,9.95
2018-09-28T01:34:54.357Z,9.89
2018-09-28T01:39:48.849Z,9.98
2018-09-28T01:44:43.276Z,9.97
2018-09-28T01:49:37.748Z,10.04
2018-09-28T01:54:32.194Z,10.27
2018-09-28T01:59:26.700Z,10.20
2018-09-28T02:04:21.228Z,10.14
2018-09-28T02:09:15.827Z,9.97
2018-09-28T02:14:10.276Z,9.88
2018-09-28T02:19:04.769Z,9.75
2018-09-28T02:23:59.240Z,9.70
2018-09-28T02:28:53.702Z,9.67
2018-09-28T02:33:48.161Z,9.68
2018-09-28T02:38:42.721Z,9.67
2018-09-28T02:43:37.227Z,9.64
2018-09-28T02:48:31.785Z,9.67
2018-09-28T02:53:26.253Z,9.66
2018-09-28T02:58:20.774Z,9.62
2018-09-28T03:03:15.272Z,9.64
2018-09-28T03:08:10.753Z,9.67
2018-09-28T03:13:05.697Z,9.57
2018-09-28T03:18:00.365Z,9.49
2018-09-28T03:22:55.029Z,9.46
2018-09-28T03:27:49.506Z,9.42
2018-09-28T03:32:44.024Z,9.43
2018-09-28T03:37:38.517Z,9.41
2018-09-28T03:42:33.052Z,9.40
2018-09-28T03:47:27.640Z,9.42
2018-09-28T03:52:22.113Z,9.35
2018-09-28T03:57:17.168Z,9.37
2018-09-28T04:02:11.629Z,9.37
2018-09-28T04:07:06.067Z,9.38
2018-09-28T04:12:00.548Z,9.33
2018-09-28T04:16:54.973Z,9.31
2018-09-28T04:21:54.628Z,9.32
2018-09-28T04:26:49.028Z,9.33
2018-09-28T04:31:43.456Z,9.30
2018-09-28T04:36:37.904Z,9.33
2018-09-28T04:41:32.395Z,9.30
2018-09-28T04:46:26.884Z,9.28
2018-09-28T04:51:21.391Z,9.32
2018-09-28T04:56:15.899Z,9.31
2018-09-28T05:01:10.481Z,9.33
2018-09-28T05:06:04.996Z,9.31
2018-09-28T05:10:59.513Z,9.30
2018-09-28T05:15:54.016Z,9.30
2018-09-28T05:20:48.565Z,9.28
2018-09-28T05:25:42.987Z,9.29
2018-09-28T05:30:44.969Z,9.35
2018-09-28T05:35:32.189Z,9.55
2018-09-28T05:40:26.723Z,9.85
2018-09-28T05:45:21.325Z,10.29
2018-09-28T05:50:15.848Z,10.65
2018-09-28T05:55:10.526Z,10.74
2018-09-28T06:00:11.240Z,11.05
2018-09-28T06:05:10.881Z,11.29
2018-09-28T06:10:05.832Z,11.76
2018-09-28T06:15:00.777Z,12.24
2018-09-28T06:19:56.209Z,12.63
2018-09-28T06:24:51.374Z,12.83
2018-09-28T06:29:52.636Z,12.84
2018-09-28T06:34:47.358Z,12.85
2018-09-28T06:39:54.203Z,12.66
2018-09-28T06:44:49.170Z,12.51
2018-09-28T06:49:43.685Z,12.45
2018-09-28T06:54:38.955Z,12.30
2018-09-28T06:59:34.104Z,12.22
2018-09-28T07:04:29.296Z,12.37
2018-09-28T07:09:23.868Z,12.65
2018-09-28T07:14:18.371Z,12.71
2018-09-28T07:19:13.154Z,13.17
2018-09-28T07:24:07.799Z,13.47
2018-09-28T07:29:03.609Z,13.70
2018-09-28T07:33:58.578Z,13.90
2018-09-28T07:39:15.994Z,14.14
2018-09-28T07:44:29.754Z,14.37
2018-09-28T07:49:24.697Z,14.51
2018-09-28T07:54:19.484Z,14.73
2018-09-28T07:59:15.447Z,14.87
2018-09-28T08:04:09.937Z,15.01
2018-09-28T08:09:06.701Z,15.28
2018-09-28T08:14:01.853Z,15.28
2018-09-28T08:18:57.804Z,15.45
2018-09-28T08:23:53.034Z,15.71
2018-09-28T08:28:47.596Z,15.88
2018-09-28T08:33:42.325Z,16.25
2018-09-28T08:38:38.470Z,16.47
2018-09-28T08:43:33.684Z,16.75
2018-09-28T08:48:28.646Z,16.96
2018-09-28T08:53:25.367Z,17.15
2018-09-28T08:58:20.457Z,17.19
2018-09-28T09:03:17.608Z,17.43
2018-09-28T09:08:12.327Z,17.44
2018-09-28T09:13:07.892Z,17.52
2018-09-28T09:18:03.046Z,17.57
2018-09-28T09:22:58.820Z,17.82
2018-09-28T09:27:53.785Z,17.77
2018-09-28T09:32:48.318Z,18.07
2018-09-28T09:37:43.052Z,17.97
2018-09-28T09:42:38.687Z,18.26
2018-09-28T09:47:33.295Z,18.36
2018-09-28T09:52:28.067Z,18.43
2018-09-28T09:57:23.140Z,18.74
2018-09-28T10:02:23.174Z,18.71
2018-09-28T10:07:18.433Z,18.86
2018-09-28T10:12:12.976Z,19.14
2018-09-28T10:17:08.207Z,19.43
2018-09-28T10:22:02.856Z,19.53
2018-09-28T10:27:10.388Z,19.67
2018-09-28T10:32:07.321Z,19.78
2018-09-28T10:37:02.146Z,19.91
2018-09-28T10:41:57.223Z,20.02
2018-09-28T10:46:52.121Z,20.16
2018-09-28T10:51:46.652Z,19.99
2018-09-28T10:56:43.189Z,20.24
2018-09-28T11:01:39.133Z,20.37
2018-09-28T11:06:33.966Z,20.61
2018-09-28T11:11:28.540Z,20.75
2018-09-28T11:16:23.187Z,20.90
2018-09-28T11:21:18.231Z,20.79
2018-09-28T11:26:12.940Z,20.98
2018-09-28T11:31:14.713Z,21.19
2018-09-28T11:36:17.605Z,21.42
2018-09-28T11:41:13.201Z,21.59
2018-09-28T11:46:25.895Z,21.73
2018-09-28T11:51:21.655Z,21.87
2018-09-28T11:56:16.170Z,21.69
2018-09-28T12:01:10.669Z,21.63
2018-09-28T12:06:07.427Z,21.64
2018-09-28T12:11:02.468Z,21.98
2018-09-28T12:15:57.333Z,21.99
2018-09-28T12:20:52.117Z,21.99
2018-09-28T12:25:53.253Z,22.16
2018-09-28T12:30:49.102Z,22.11
2018-09-28T12:35:43.710Z,22.12
2018-09-28T12:40:41.703Z,22.21
2018-09-28T12:45:36.549Z,22.26
2018-09-28T12:50:32.106Z,22.56
2018-09-28T12:55:28.265Z,22.72
2018-09-28T13:00:25.194Z,22.89
2018-09-28T13:05:20.227Z,22.92
2018-09-28T13:10:14.858Z,22.87
2018-09-28T13:15:09.624Z,22.76
2018-09-28T13:20:05.053Z,22.84
2018-09-28T13:24:59.530Z,22.98
2018-09-28T13:29:53.968Z,23.04
2018-09-28T13:34:49.029Z,23.09
2018-09-28T13:39:44.147Z,23.11
2018-09-28T13:44:39.514Z,23.17
2018-09-28T13:49:34.789Z,23.21
2018-09-28T13:54:30.542Z,23.30
2018-09-28T13:59:25.881Z,23.37
2018-09-28T14:04:20.528Z,23.34
2018-09-28T14:09:15.192Z,23.45
2018-09-28T14:14:09.724Z,23.48
2018-09-28T14:19:05.026Z,23.54
2018-09-28T14:24:00.921Z,23.66
2018-09-28T14:28:56.622Z,23.73
2018-09-28T14:33:54.872Z,23.69
2018-09-28T14:38:51.874Z,23.82
2018-09-28T14:43:48.449Z,23.79
2018-09-28T14:48:47.172Z,23.84
2018-09-28T14:53:42.527Z,23.92
2018-09-28T14:58:38.626Z,23.86
2018-09-28T15:03:33.572Z,23.68
2018-09-28T15:08:28.836Z,23.43
2018-09-28T15:13:24.904Z,23.29
2018-09-28T15:18:21.454Z,23.17
2018-09-28T15:23:16.602Z,23.09
2018-09-28T15:28:11.149Z,23.12
2018-09-28T15:33:05.595Z,22.90
2018-09-28T15:38:00.256Z,22.85
2018-09-28T15:42:54.720Z,22.82
2018-09-28T15:47:49.456Z,22.71
2018-09-28T15:52:43.924Z,22.57
2018-09-28T15:57:38.652Z,22.49
2018-09-28T16:02:33.125Z,22.38
2018-09-28T16:07:27.646Z,22.37
2018-09-28T16:12:22.136Z,22.27
2018-09-28T16:17:16.625Z,22.10
2018-09-28T16:22:11.381Z,21.99
2018-09-28T16:27:06.048Z,21.81
2018-09-28T16:32:01.207Z,21.68
2018-09-28T16:36:55.757Z,21.57
2018-09-28T16:41:50.259Z,21.57
2018-09-28T16:46:44.882Z,21.53
2018-09-28T16:51:39.412Z,21.37
2018-09-28T16:56:33.980Z,21.06
2018-09-28T17:01:28.618Z,21.07
2018-09-28T17:06:23.129Z,20.95
2018-09-28T17:11:17.650Z,20.76
2018-09-28T17:16:12.129Z,20.51
2018-09-28T17:21:06.809Z,20.20
2018-09-28T17:26:02.360Z,20.04
2018-09-28T17:30:57.113Z,20.05
2018-09-28T17:35:51.584Z,19.90
2018-09-28T17:40:46.089Z,19.76
2018-09-28T17:45:42.081Z,19.67
2018-09-28T17:50:36.913Z,19.84
2018-09-28T17:55:31.394Z,20.08
2018-09-28T18:00:25.949Z,20.10
2018-09-28T18:05:20.909Z,19.90
2018-09-28T18:10:15.412Z,19.72
2018-09-28T18:15:09.961Z,19.62
2018-09-28T18:20:06.246Z,19.52
2018-09-28T18:25:00.716Z,19.41
2018-09-28T18:29:55.508Z,19.16
2018-09-28T18:34:50.536Z,19.07
2018-09-28T18:39:45.104Z,18.97
2018-09-28T18:44:39.593Z,18.89
2018-09-28T18:49:34.060Z,18.86
2018-09-28T18:54:28.500Z,18.70
2018-09-28T18:59:23.328Z,18.76
2018-09-28T19:04:17.896Z,18.57
2018-09-28T19:09:13.140Z,18.59
2018-09-28T19:14:07.870Z,18.48
2018-09-28T19:19:02.732Z,18.31
2018-09-28T19:23:57.212Z,18.29
2018-09-28T19:28:51.756Z,18.13
2018-09-28T19:33:46.972Z,18.14
2018-09-28T19:38:41.448Z,18.18
2018-09-28T19:43:36.005Z,18.04
2018-09-28T19:48:30.568Z,18.07
2018-09-28T19:53:25.058Z,18.00
2018-09-28T19:58:19.626Z,17.89
2018-09-28T20:03:14.202Z,17.97
2018-09-28T20:08:09.184Z,17.95
2018-09-28T20:13:03.693Z,17.83
2018-09-28T20:17:58.193Z,17.84
2018-09-28T20:22:52.788Z,17.77
2018-09-28T20:27:47.363Z,17.72
2018-09-28T20:32:41.804Z,17.69
2018-09-28T20:37:36.311Z,17.68
2018-09-28T20:42:30.939Z,17.65
2018-09-28T20:47:25.417Z,17.63
2018-09-28T20:52:19.888Z,17.64
2018-09-28T20:57:14.352Z,17.71
2018-09-28T21:02:08.825Z,17.52
2018-09-28T21:07:03.373Z,17.41
2018-09-28T21:11:57.871Z,17.47
2018-09-28T21:16:52.436Z,17.43
2018-09-28T21:21:46.908Z,17.32
2018-09-28T21:26:41.938Z,17.15
2018-09-28T21:31:36.459Z,17.12
2018-09-28T21:36:31.019Z,17.02
2018-09-28T21:41:25.579Z,16.97
2018-09-28T21:46:20.896Z,16.80
2018-09-28T21:51:15.582Z,16.72
2018-09-28T21:56:10.180Z,16.66
2018-09-28T22:01:04.919Z,16.49
2018-09-28T22:05:59.518Z,16.37
2018-09-28T22:10:54.360Z,16.23
2018-09-28T22:15:49.005Z,16.13
2018-09-28T22:20:43.516Z,16.01
2018-09-28T22:25:37.984Z,15.93
2018-09-28T22:30:32.601Z,15.94
2018-09-28T22:35:27.563Z,15.74
2018-09-28T22:40:22.148Z,15.51
2018-09-28T22:45:16.748Z,15.46
2018-09-28T22:50:11.317Z,15.41
2018-09-28T22:55:06.189Z,15.26
2018-09-28T23:00:00.716Z,15.23
2018-09-28T23:04:55.376Z,15.19
2018-09-28T23:09:50.025Z,15.09
2018-09-28T23:14:44.548Z,14.98
2018-09-28T23:19:39.044Z,14.86
2018-09-28T23:24:33.577Z,14.70
2018-09-28T23:29:28.041Z,14.48
2018-09-28T23:34:22.673Z,14.35
2018-09-28T23:39:17.216Z,14.23
2018-09-28T23:44:11.696Z,14.20
2018-09-28T23:49:06.403Z,14.08
2018-09-28T23:54:01.000Z,14.04
2018-09-28T23:58:55.495Z,13.99
